sensor_id;sensor_type;location;lat;lon;timestamp;temperature;humidity
12901;DHT22;6518;50.930;5.344;2024-03-17T00:00:21;9.00;99.90
12901;DHT22;6518;50.930;5.344;2024-03-17T00:02:47;9.00;99.90
12901;DHT22;6518;50.930;5.344;2024-03-17T00:05:14;9.00;99.90
12901;DHT22;6518;50.930;5.344;2024-03-17T00:07:42;9.00;99.90
12901;DHT22;6518;50.930;5.344;2024-03-17T00:10:09;8.90;99.90
12901;DHT22;6518;50.930;5.344;2024-03-17T00:12:36;9.00;99.90
12901;DHT22;6518;50.930;5.344;2024-03-17T00:15:04;9.00;99.90
12901;DHT22;6518;50.930;5.344;2024-03-17T00:17:30;9.00;99.90
12901;DHT22;6518;50.930;5.344;2024-03-17T00:19:58;9.00;99.90
12901;DHT22;6518;50.930;5.344;2024-03-17T00:22:27;9.00;99.90
12901;DHT22;6518;50.930;5.344;2024-03-17T00:24:55;9.00;99.90
12901;DHT22;6518;50.930;5.344;2024-03-17T00:27:22;9.00;99.90
12901;DHT22;6518;50.930;5.344;2024-03-17T00:29:48;8.90;99.90
12901;DHT22;6518;50.930;5.344;2024-03-17T00:32:14;8.90;99.90
12901;DHT22;6518;50.930;5.344;2024-03-17T00:34:43;8.90;99.90
12901;DHT22;6518;50.930;5.344;2024-03-17T00:37:09;8.90;99.90
12901;DHT22;6518;50.930;5.344;2024-03-17T00:39:35;8.90;99.90
12901;DHT22;6518;50.930;5.344;2024-03-17T00:42:03;8.80;99.90
12901;DHT22;6518;50.930;5.344;2024-03-17T00:44:30;8.80;99.90
12901;DHT22;6518;50.930;5.344;2024-03-17T00:46:56;8.80;99.90
12901;DHT22;6518;50.930;5.344;2024-03-17T00:49:23;8.80;99.90
12901;DHT22;6518;50.930;5.344;2024-03-17T00:51:48;8.80;99.90
12901;DHT22;6518;50.930;5.344;2024-03-17T00:54:16;8.80;99.90
12901;DHT22;6518;50.930;5.344;2024-03-17T00:56:43;8.80;99.90
12901;DHT22;6518;50.930;5.344;2024-03-17T00:59:12;8.80;99.90
12901;DHT22;6518;50.930;5.344;2024-03-17T01:01:38;8.70;99.90
12901;DHT22;6518;50.930;5.344;2024-03-17T01:04:05;8.70;99.90
12901;DHT22;6518;50.930;5.344;2024-03-17T01:06:31;8.70;99.90
12901;DHT22;6518;50.930;5.344;2024-03-17T01:08:59;8.60;99.90
12901;DHT22;6518;50.930;5.344;2024-03-17T01:11:25;8.60;99.90
12901;DHT22;6518;50.930;5.344;2024-03-17T01:13:53;8.60;99.90
12901;DHT22;6518;50.930;5.344;2024-03-17T01:16:20;8.60;99.90
12901;DHT22;6518;50.930;5.344;2024-03-17T01:18:47;8.60;99.90
12901;DHT22;6518;50.930;5.344;2024-03-17T01:21:13;8.60;99.90
12901;DHT22;6518;50.930;5.344;2024-03-17T01:23:39;8.60;99.90
12901;DHT22;6518;50.930;5.344;2024-03-17T01:26:05;8.60;99.90
12901;DHT22;6518;50.930;5.344;2024-03-17T01:28:32;8.60;99.90
12901;DHT22;6518;50.930;5.344;2024-03-17T01:30:58;8.60;99.90
12901;DHT22;6518;50.930;5.344;2024-03-17T01:33:26;8.60;99.90
12901;DHT22;6518;50.930;5.344;2024-03-17T01:35:52;8.60;99.90
12901;DHT22;6518;50.930;5.344;2024-03-17T01:38:19;8.60;99.90
12901;DHT22;6518;50.930;5.344;2024-03-17T01:40:45;8.60;99.90
12901;DHT22;6518;50.930;5.344;2024-03-17T01:43:12;8.60;99.90
12901;DHT22;6518;50.930;5.344;2024-03-17T01:45:38;8.60;99.90
12901;DHT22;6518;50.930;5.344;2024-03-17T01:48:11;8.70;99.90
12901;DHT22;6518;50.930;5.344;2024-03-17T01:50:41;8.70;99.90
12901;DHT22;6518;50.930;5.344;2024-03-17T01:53:09;8.70;99.90
12901;DHT22;6518;50.930;5.344;2024-03-17T01:55:37;8.70;99.90
12901;DHT22;6518;50.930;5.344;2024-03-17T01:58:05;8.70;99.90
12901;DHT22;6518;50.930;5.344;2024-03-17T02:00:33;8.70;99.90
12901;DHT22;6518;50.930;5.344;2024-03-17T02:03:02;8.70;99.90
12901;DHT22;6518;50.930;5.344;2024-03-17T02:05:29;8.70;99.90
12901;DHT22;6518;50.930;5.344;2024-03-17T02:08:00;8.70;99.90
12901;DHT22;6518;50.930;5.344;2024-03-17T02:10:28;8.80;99.90
12901;DHT22;6518;50.930;5.344;2024-03-17T02:12:54;8.80;99.90
12901;DHT22;6518;50.930;5.344;2024-03-17T02:15:21;8.80;99.90
12901;DHT22;6518;50.930;5.344;2024-03-17T02:17:47;8.80;99.90
12901;DHT22;6518;50.930;5.344;2024-03-17T02:20:14;8.80;99.90
12901;DHT22;6518;50.930;5.344;2024-03-17T02:22:41;8.80;99.90
12901;DHT22;6518;50.930;5.344;2024-03-17T02:25:08;8.80;99.90
12901;DHT22;6518;50.930;5.344;2024-03-17T02:27:34;8.80;99.90
12901;DHT22;6518;50.930;5.344;2024-03-17T02:30:01;8.80;99.90
12901;DHT22;6518;50.930;5.344;2024-03-17T02:32:27;8.80;99.90
12901;DHT22;6518;50.930;5.344;2024-03-17T02:34:54;8.70;99.90
12901;DHT22;6518;50.930;5.344;2024-03-17T02:37:20;8.80;99.90
12901;DHT22;6518;50.930;5.344;2024-03-17T02:39:49;8.80;99.90
12901;DHT22;6518;50.930;5.344;2024-03-17T02:42:14;8.80;99.90
12901;DHT22;6518;50.930;5.344;2024-03-17T02:44:41;8.80;99.90
12901;DHT22;6518;50.930;5.344;2024-03-17T02:47:08;8.80;99.90
12901;DHT22;6518;50.930;5.344;2024-03-17T02:49:36;8.80;99.90
12901;DHT22;6518;50.930;5.344;2024-03-17T02:52:06;8.80;99.90
12901;DHT22;6518;50.930;5.344;2024-03-17T02:54:33;8.80;99.90
12901;DHT22;6518;50.930;5.344;2024-03-17T02:57:02;8.70;99.90
12901;DHT22;6518;50.930;5.344;2024-03-17T02:59:29;8.80;99.90
12901;DHT22;6518;50.930;5.344;2024-03-17T03:01:57;8.80;99.90
12901;DHT22;6518;50.930;5.344;2024-03-17T03:04:24;8.80;99.90
12901;DHT22;6518;50.930;5.344;2024-03-17T03:06:51;8.80;99.90
12901;DHT22;6518;50.930;5.344;2024-03-17T03:09:18;8.70;99.90
12901;DHT22;6518;50.930;5.344;2024-03-17T03:11:51;8.70;99.90
12901;DHT22;6518;50.930;5.344;2024-03-17T03:14:20;8.70;99.90
12901;DHT22;6518;50.930;5.344;2024-03-17T03:16:47;8.70;99.90
12901;DHT22;6518;50.930;5.344;2024-03-17T03:19:15;8.70;99.90
12901;DHT22;6518;50.930;5.344;2024-03-17T03:21:42;8.70;99.90
12901;DHT22;6518;50.930;5.344;2024-03-17T03:24:09;8.70;99.90
12901;DHT22;6518;50.930;5.344;2024-03-17T03:26:35;8.60;99.90
12901;DHT22;6518;50.930;5.344;2024-03-17T03:29:04;8.60;99.90
12901;DHT22;6518;50.930;5.344;2024-03-17T03:31:32;8.50;99.90
12901;DHT22;6518;50.930;5.344;2024-03-17T03:33:59;8.50;99.90
12901;DHT22;6518;50.930;5.344;2024-03-17T03:36:27;8.50;99.90
12901;DHT22;6518;50.930;5.344;2024-03-17T03:38:54;8.40;99.90
12901;DHT22;6518;50.930;5.344;2024-03-17T03:41:23;8.40;99.90
12901;DHT22;6518;50.930;5.344;2024-03-17T03:43:50;8.30;99.90
12901;DHT22;6518;50.930;5.344;2024-03-17T03:46:18;8.30;99.90
12901;DHT22;6518;50.930;5.344;2024-03-17T03:48:46;8.40;99.90
12901;DHT22;6518;50.930;5.344;2024-03-17T03:51:13;8.30;99.90
12901;DHT22;6518;50.930;5.344;2024-03-17T03:53:40;8.30;99.90
12901;DHT22;6518;50.930;5.344;2024-03-17T03:56:08;8.40;99.90
12901;DHT22;6518;50.930;5.344;2024-03-17T03:58:36;8.30;99.90
12901;DHT22;6518;50.930;5.344;2024-03-17T04:01:04;8.40;99.90
12901;DHT22;6518;50.930;5.344;2024-03-17T04:03:31;8.40;99.90
12901;DHT22;6518;50.930;5.344;2024-03-17T04:06:04;8.40;99.90
12901;DHT22;6518;50.930;5.344;2024-03-17T04:08:32;8.40;99.90
12901;DHT22;6518;50.930;5.344;2024-03-17T04:10:59;8.40;99.90
12901;DHT22;6518;50.930;5.344;2024-03-17T04:13:26;8.40;99.90
12901;DHT22;6518;50.930;5.344;2024-03-17T04:15:55;8.40;99.90
12901;DHT22;6518;50.930;5.344;2024-03-17T04:18:23;8.40;99.90
12901;DHT22;6518;50.930;5.344;2024-03-17T04:20:50;8.40;99.90
12901;DHT22;6518;50.930;5.344;2024-03-17T04:23:19;8.40;99.90
12901;DHT22;6518;50.930;5.344;2024-03-17T04:25:47;8.40;99.90
12901;DHT22;6518;50.930;5.344;2024-03-17T04:28:14;8.50;99.90
12901;DHT22;6518;50.930;5.344;2024-03-17T04:30:41;8.40;99.90
12901;DHT22;6518;50.930;5.344;2024-03-17T04:33:08;8.50;99.90
12901;DHT22;6518;50.930;5.344;2024-03-17T04:35:36;8.50;99.90
12901;DHT22;6518;50.930;5.344;2024-03-17T04:38:03;8.50;99.90
12901;DHT22;6518;50.930;5.344;2024-03-17T04:40:32;8.50;99.90
12901;DHT22;6518;50.930;5.344;2024-03-17T04:42:59;8.50;99.90
12901;DHT22;6518;50.930;5.344;2024-03-17T04:45:26;8.50;99.90
12901;DHT22;6518;50.930;5.344;2024-03-17T04:47:53;8.50;99.90
12901;DHT22;6518;50.930;5.344;2024-03-17T04:50:20;8.50;99.90
12901;DHT22;6518;50.930;5.344;2024-03-17T04:52:48;8.40;99.90
12901;DHT22;6518;50.930;5.344;2024-03-17T04:55:15;8.50;99.90
12901;DHT22;6518;50.930;5.344;2024-03-17T04:57:44;8.50;99.90
12901;DHT22;6518;50.930;5.344;2024-03-17T05:00:12;8.50;99.90
12901;DHT22;6518;50.930;5.344;2024-03-17T05:02:39;8.50;99.90
12901;DHT22;6518;50.930;5.344;2024-03-17T05:05:07;8.50;99.90
12901;DHT22;6518;50.930;5.344;2024-03-17T05:07:36;8.40;99.90
12901;DHT22;6518;50.930;5.344;2024-03-17T05:10:03;8.40;99.90
12901;DHT22;6518;50.930;5.344;2024-03-17T05:12:31;8.40;99.90
12901;DHT22;6518;50.930;5.344;2024-03-17T05:14:59;8.40;99.90
12901;DHT22;6518;50.930;5.344;2024-03-17T05:17:26;8.40;99.90
12901;DHT22;6518;50.930;5.344;2024-03-17T05:19:53;8.40;99.90
12901;DHT22;6518;50.930;5.344;2024-03-17T05:22:20;8.40;99.90
12901;DHT22;6518;50.930;5.344;2024-03-17T05:24:47;8.40;99.90
12901;DHT22;6518;50.930;5.344;2024-03-17T05:27:14;8.40;99.90
12901;DHT22;6518;50.930;5.344;2024-03-17T05:29:41;8.40;99.90
12901;DHT22;6518;50.930;5.344;2024-03-17T05:32:09;8.30;99.90
12901;DHT22;6518;50.930;5.344;2024-03-17T05:34:38;8.30;99.90
12901;DHT22;6518;50.930;5.344;2024-03-17T05:37:05;8.30;99.90
12901;DHT22;6518;50.930;5.344;2024-03-17T05:39:32;8.30;99.90
12901;DHT22;6518;50.930;5.344;2024-03-17T05:41:59;8.20;99.90
12901;DHT22;6518;50.930;5.344;2024-03-17T05:44:29;8.20;99.90
12901;DHT22;6518;50.930;5.344;2024-03-17T05:47:05;8.10;99.90
12901;DHT22;6518;50.930;5.344;2024-03-17T05:49:35;8.10;99.90
12901;DHT22;6518;50.930;5.344;2024-03-17T05:52:02;8.10;99.90
12901;DHT22;6518;50.930;5.344;2024-03-17T05:54:29;8.10;99.90
12901;DHT22;6518;50.930;5.344;2024-03-17T05:56:55;8.10;99.90
12901;DHT22;6518;50.930;5.344;2024-03-17T05:59:22;8.10;99.90
12901;DHT22;6518;50.930;5.344;2024-03-17T06:01:49;8.10;99.90
12901;DHT22;6518;50.930;5.344;2024-03-17T06:04:16;8.10;99.90
12901;DHT22;6518;50.930;5.344;2024-03-17T06:06:45;8.10;99.90
12901;DHT22;6518;50.930;5.344;2024-03-17T06:09:14;8.10;99.90
12901;DHT22;6518;50.930;5.344;2024-03-17T06:11:44;8.20;99.90
12901;DHT22;6518;50.930;5.344;2024-03-17T06:14:12;8.10;99.90
12901;DHT22;6518;50.930;5.344;2024-03-17T06:16:39;8.20;99.90
12901;DHT22;6518;50.930;5.344;2024-03-17T06:19:06;8.20;99.90
12901;DHT22;6518;50.930;5.344;2024-03-17T06:21:33;8.30;99.90
12901;DHT22;6518;50.930;5.344;2024-03-17T06:24:02;8.30;99.90
12901;DHT22;6518;50.930;5.344;2024-03-17T06:26:29;8.40;99.90
12901;DHT22;6518;50.930;5.344;2024-03-17T06:28:57;8.50;99.90
12901;DHT22;6518;50.930;5.344;2024-03-17T06:31:25;8.60;99.90
12901;DHT22;6518;50.930;5.344;2024-03-17T06:33:52;8.60;99.90
12901;DHT22;6518;50.930;5.344;2024-03-17T06:36:19;8.70;99.90
12901;DHT22;6518;50.930;5.344;2024-03-17T06:38:46;8.80;99.90
12901;DHT22;6518;50.930;5.344;2024-03-17T06:41:14;8.90;99.90
12901;DHT22;6518;50.930;5.344;2024-03-17T06:43:42;8.90;99.90
12901;DHT22;6518;50.930;5.344;2024-03-17T06:46:10;8.90;99.90
12901;DHT22;6518;50.930;5.344;2024-03-17T06:48:37;9.00;99.90
12901;DHT22;6518;50.930;5.344;2024-03-17T06:51:04;9.10;99.90
12901;DHT22;6518;50.930;5.344;2024-03-17T06:53:32;9.10;99.90
12901;DHT22;6518;50.930;5.344;2024-03-17T06:56:00;9.10;99.90
12901;DHT22;6518;50.930;5.344;2024-03-17T06:58:28;9.10;99.90
12901;DHT22;6518;50.930;5.344;2024-03-17T07:00:56;9.20;99.90
12901;DHT22;6518;50.930;5.344;2024-03-17T07:03:25;9.20;99.90
12901;DHT22;6518;50.930;5.344;2024-03-17T07:05:56;9.20;99.90
12901;DHT22;6518;50.930;5.344;2024-03-17T07:08:23;9.20;99.90
12901;DHT22;6518;50.930;5.344;2024-03-17T07:10:57;9.30;99.90
12901;DHT22;6518;50.930;5.344;2024-03-17T07:13:25;9.30;99.90
12901;DHT22;6518;50.930;5.344;2024-03-17T07:15:53;9.30;99.90
12901;DHT22;6518;50.930;5.344;2024-03-17T07:18:20;9.40;99.90
12901;DHT22;6518;50.930;5.344;2024-03-17T07:20:47;9.50;99.90
12901;DHT22;6518;50.930;5.344;2024-03-17T07:23:14;9.60;99.90
12901;DHT22;6518;50.930;5.344;2024-03-17T07:25:42;9.80;99.90
12901;DHT22;6518;50.930;5.344;2024-03-17T07:28:09;9.90;99.90
12901;DHT22;6518;50.930;5.344;2024-03-17T07:30:36;10.00;99.90
12901;DHT22;6518;50.930;5.344;2024-03-17T07:33:04;10.00;99.90
12901;DHT22;6518;50.930;5.344;2024-03-17T07:35:31;10.10;99.90
12901;DHT22;6518;50.930;5.344;2024-03-17T07:37:59;10.10;99.90
12901;DHT22;6518;50.930;5.344;2024-03-17T07:40:26;10.10;99.90
12901;DHT22;6518;50.930;5.344;2024-03-17T07:42:53;10.30;99.90
12901;DHT22;6518;50.930;5.344;2024-03-17T07:45:22;10.40;99.90
12901;DHT22;6518;50.930;5.344;2024-03-17T07:47:50;10.50;99.90
12901;DHT22;6518;50.930;5.344;2024-03-17T07:50:19;10.50;99.90
12901;DHT22;6518;50.930;5.344;2024-03-17T07:52:46;10.50;99.90
12901;DHT22;6518;50.930;5.344;2024-03-17T07:55:13;10.60;99.90
12901;DHT22;6518;50.930;5.344;2024-03-17T07:57:40;10.70;99.90
12901;DHT22;6518;50.930;5.344;2024-03-17T08:00:08;10.70;99.90
12901;DHT22;6518;50.930;5.344;2024-03-17T08:02:41;10.80;99.90
12901;DHT22;6518;50.930;5.344;2024-03-17T08:05:10;11.00;99.90
12901;DHT22;6518;50.930;5.344;2024-03-17T08:07:38;11.00;99.90
12901;DHT22;6518;50.930;5.344;2024-03-17T08:10:07;11.00;99.90
12901;DHT22;6518;50.930;5.344;2024-03-17T08:12:34;11.10;99.90
12901;DHT22;6518;50.930;5.344;2024-03-17T08:15:00;11.10;99.90
12901;DHT22;6518;50.930;5.344;2024-03-17T08:17:27;11.10;99.90
12901;DHT22;6518;50.930;5.344;2024-03-17T08:19:54;11.10;99.90
12901;DHT22;6518;50.930;5.344;2024-03-17T08:22:21;11.20;99.90
12901;DHT22;6518;50.930;5.344;2024-03-17T08:24:49;11.20;99.90
12901;DHT22;6518;50.930;5.344;2024-03-17T08:27:16;11.20;99.90
12901;DHT22;6518;50.930;5.344;2024-03-17T08:29:43;11.30;99.90
12901;DHT22;6518;50.930;5.344;2024-03-17T08:32:10;11.30;99.90
12901;DHT22;6518;50.930;5.344;2024-03-17T08:34:37;11.30;99.50
12901;DHT22;6518;50.930;5.344;2024-03-17T08:37:04;11.30;99.50
12901;DHT22;6518;50.930;5.344;2024-03-17T08:39:31;11.30;99.80
12901;DHT22;6518;50.930;5.344;2024-03-17T08:42:00;11.40;99.80
12901;DHT22;6518;50.930;5.344;2024-03-17T08:44:26;11.40;99.90
12901;DHT22;6518;50.930;5.344;2024-03-17T08:46:54;11.50;99.90
12901;DHT22;6518;50.930;5.344;2024-03-17T08:49:20;11.50;99.40
12901;DHT22;6518;50.930;5.344;2024-03-17T08:51:47;11.60;99.50
12901;DHT22;6518;50.930;5.344;2024-03-17T08:54:14;11.80;99.30
12901;DHT22;6518;50.930;5.344;2024-03-17T08:56:41;11.80;99.10
12901;DHT22;6518;50.930;5.344;2024-03-17T08:59:09;12.00;98.40
12901;DHT22;6518;50.930;5.344;2024-03-17T09:01:37;12.00;98.50
12901;DHT22;6518;50.930;5.344;2024-03-17T09:04:04;12.10;98.40
12901;DHT22;6518;50.930;5.344;2024-03-17T09:06:31;12.20;98.10
12901;DHT22;6518;50.930;5.344;2024-03-17T09:08:58;12.20;97.80
12901;DHT22;6518;50.930;5.344;2024-03-17T09:11:25;12.40;97.90
12901;DHT22;6518;50.930;5.344;2024-03-17T09:13:53;12.50;97.30
12901;DHT22;6518;50.930;5.344;2024-03-17T09:16:21;12.60;96.90
12901;DHT22;6518;50.930;5.344;2024-03-17T09:18:50;12.70;96.80
12901;DHT22;6518;50.930;5.344;2024-03-17T09:21:17;12.70;96.70
12901;DHT22;6518;50.930;5.344;2024-03-17T09:23:44;12.80;96.30
12901;DHT22;6518;50.930;5.344;2024-03-17T09:26:12;12.80;95.90
12901;DHT22;6518;50.930;5.344;2024-03-17T09:28:41;12.80;95.80
12901;DHT22;6518;50.930;5.344;2024-03-17T09:31:10;12.90;95.60
12901;DHT22;6518;50.930;5.344;2024-03-17T09:33:39;12.90;94.70
12901;DHT22;6518;50.930;5.344;2024-03-17T09:36:08;12.90;94.80
12901;DHT22;6518;50.930;5.344;2024-03-17T09:38:36;13.00;95.20
12901;DHT22;6518;50.930;5.344;2024-03-17T09:41:05;13.20;95.30
12901;DHT22;6518;50.930;5.344;2024-03-17T09:43:33;13.30;95.00
12901;DHT22;6518;50.930;5.344;2024-03-17T09:46:02;13.40;94.90
12901;DHT22;6518;50.930;5.344;2024-03-17T09:48:29;13.50;94.60
12901;DHT22;6518;50.930;5.344;2024-03-17T09:50:58;13.50;94.40
12901;DHT22;6518;50.930;5.344;2024-03-17T09:53:27;13.60;94.30
12901;DHT22;6518;50.930;5.344;2024-03-17T09:55:58;13.70;94.00
12901;DHT22;6518;50.930;5.344;2024-03-17T09:58:25;13.80;93.50
12901;DHT22;6518;50.930;5.344;2024-03-17T10:00:52;13.80;92.80
12901;DHT22;6518;50.930;5.344;2024-03-17T10:03:44;13.80;93.40
12901;DHT22;6518;50.930;5.344;2024-03-17T10:06:14;13.80;93.30
12901;DHT22;6518;50.930;5.344;2024-03-17T10:08:42;13.90;93.40
12901;DHT22;6518;50.930;5.344;2024-03-17T10:11:09;13.90;93.10
12901;DHT22;6518;50.930;5.344;2024-03-17T10:13:37;13.90;92.20
12901;DHT22;6518;50.930;5.344;2024-03-17T10:16:04;13.90;92.40
12901;DHT22;6518;50.930;5.344;2024-03-17T10:18:31;14.00;92.40
12901;DHT22;6518;50.930;5.344;2024-03-17T10:20:59;14.00;92.30
12901;DHT22;6518;50.930;5.344;2024-03-17T10:23:30;14.10;92.10
12901;DHT22;6518;50.930;5.344;2024-03-17T10:25:57;14.20;92.20
12901;DHT22;6518;50.930;5.344;2024-03-17T10:28:25;14.20;91.90
12901;DHT22;6518;50.930;5.344;2024-03-17T10:31:01;14.20;91.30
12901;DHT22;6518;50.930;5.344;2024-03-17T10:33:41;14.30;91.40
12901;DHT22;6518;50.930;5.344;2024-03-17T10:36:17;14.20;90.80
12901;DHT22;6518;50.930;5.344;2024-03-17T10:38:52;14.20;90.80
12901;DHT22;6518;50.930;5.344;2024-03-17T10:41:21;14.10;91.00
12901;DHT22;6518;50.930;5.344;2024-03-17T10:43:48;14.10;91.00
12901;DHT22;6518;50.930;5.344;2024-03-17T10:46:15;14.10;90.80
12901;DHT22;6518;50.930;5.344;2024-03-17T10:48:44;14.00;90.80
12901;DHT22;6518;50.930;5.344;2024-03-17T10:51:17;14.00;91.00
12901;DHT22;6518;50.930;5.344;2024-03-17T10:53:46;13.90;90.80
12901;DHT22;6518;50.930;5.344;2024-03-17T10:56:19;13.90;91.30
12901;DHT22;6518;50.930;5.344;2024-03-17T10:58:48;13.80;91.00
12901;DHT22;6518;50.930;5.344;2024-03-17T11:01:20;13.80;91.50
12901;DHT22;6518;50.930;5.344;2024-03-17T11:03:47;13.70;91.50
12901;DHT22;6518;50.930;5.344;2024-03-17T11:06:17;13.70;91.30
12901;DHT22;6518;50.930;5.344;2024-03-17T11:08:44;13.70;91.50
12901;DHT22;6518;50.930;5.344;2024-03-17T11:11:11;13.70;91.60
12901;DHT22;6518;50.930;5.344;2024-03-17T11:13:41;13.70;91.60
12901;DHT22;6518;50.930;5.344;2024-03-17T11:16:25;13.70;91.70
12901;DHT22;6518;50.930;5.344;2024-03-17T11:18:53;13.70;91.80
12901;DHT22;6518;50.930;5.344;2024-03-17T11:21:32;13.70;91.90
12901;DHT22;6518;50.930;5.344;2024-03-17T11:24:01;13.80;92.00
12901;DHT22;6518;50.930;5.344;2024-03-17T11:26:30;13.80;92.10
12901;DHT22;6518;50.930;5.344;2024-03-17T11:28:59;13.80;92.20
12901;DHT22;6518;50.930;5.344;2024-03-17T11:31:50;13.90;92.30
12901;DHT22;6518;50.930;5.344;2024-03-17T11:34:37;13.90;92.40
12901;DHT22;6518;50.930;5.344;2024-03-17T11:37:05;14.00;92.40
12901;DHT22;6518;50.930;5.344;2024-03-17T11:39:51;14.10;92.80
12901;DHT22;6518;50.930;5.344;2024-03-17T11:42:22;14.10;92.60
12901;DHT22;6518;50.930;5.344;2024-03-17T11:45:01;14.20;92.20
12901;DHT22;6518;50.930;5.344;2024-03-17T11:47:36;14.20;92.30
12901;DHT22;6518;50.930;5.344;2024-03-17T11:50:05;14.30;92.30
12901;DHT22;6518;50.930;5.344;2024-03-17T11:52:31;14.30;92.20
12901;DHT22;6518;50.930;5.344;2024-03-17T11:55:06;14.40;92.10
12901;DHT22;6518;50.930;5.344;2024-03-17T11:57:41;14.40;92.00
12901;DHT22;6518;50.930;5.344;2024-03-17T12:00:19;14.40;92.00
12901;DHT22;6518;50.930;5.344;2024-03-17T12:02:48;14.50;92.00
12901;DHT22;6518;50.930;5.344;2024-03-17T12:05:15;14.50;92.00
12901;DHT22;6518;50.930;5.344;2024-03-17T12:07:42;14.60;92.00
12901;DHT22;6518;50.930;5.344;2024-03-17T12:10:10;14.60;91.90
12901;DHT22;6518;50.930;5.344;2024-03-17T12:12:36;14.60;91.80
12901;DHT22;6518;50.930;5.344;2024-03-17T12:15:16;14.70;92.00
12901;DHT22;6518;50.930;5.344;2024-03-17T12:17:43;14.80;91.90
12901;DHT22;6518;50.930;5.344;2024-03-17T12:20:20;14.90;92.00
12901;DHT22;6518;50.930;5.344;2024-03-17T12:22:47;15.00;91.80
12901;DHT22;6518;50.930;5.344;2024-03-17T12:25:17;15.10;91.60
12901;DHT22;6518;50.930;5.344;2024-03-17T12:27:45;15.10;91.60
12901;DHT22;6518;50.930;5.344;2024-03-17T12:30:12;15.20;91.70
12901;DHT22;6518;50.930;5.344;2024-03-17T12:32:38;15.30;90.90
12901;DHT22;6518;50.930;5.344;2024-03-17T12:35:13;15.40;90.90
12901;DHT22;6518;50.930;5.344;2024-03-17T12:37:39;15.40;90.80
12901;DHT22;6518;50.930;5.344;2024-03-17T12:40:18;15.50;90.50
12901;DHT22;6518;50.930;5.344;2024-03-17T12:42:48;15.60;90.30
12901;DHT22;6518;50.930;5.344;2024-03-17T12:45:19;15.70;90.00
12901;DHT22;6518;50.930;5.344;2024-03-17T12:47:47;15.80;89.60
12901;DHT22;6518;50.930;5.344;2024-03-17T12:50:16;15.80;89.40
12901;DHT22;6518;50.930;5.344;2024-03-17T12:52:52;15.90;88.90
12901;DHT22;6518;50.930;5.344;2024-03-17T12:55:19;16.00;88.40
12901;DHT22;6518;50.930;5.344;2024-03-17T12:58:08;16.00;88.00
12901;DHT22;6518;50.930;5.344;2024-03-17T13:01:05;16.10;86.90
12901;DHT22;6518;50.930;5.344;2024-03-17T13:03:33;16.20;86.40
12901;DHT22;6518;50.930;5.344;2024-03-17T13:06:01;16.20;85.60
12901;DHT22;6518;50.930;5.344;2024-03-17T13:08:31;16.30;85.60
12901;DHT22;6518;50.930;5.344;2024-03-17T13:10:58;16.20;83.70
12901;DHT22;6518;50.930;5.344;2024-03-17T13:13:25;16.20;84.20
12901;DHT22;6518;50.930;5.344;2024-03-17T13:15:52;16.20;84.80
12901;DHT22;6518;50.930;5.344;2024-03-17T13:18:20;16.30;84.90
12901;DHT22;6518;50.930;5.344;2024-03-17T13:20:47;16.40;84.60
12901;DHT22;6518;50.930;5.344;2024-03-17T13:23:18;16.40;84.20
12901;DHT22;6518;50.930;5.344;2024-03-17T13:25:47;16.50;83.60
12901;DHT22;6518;50.930;5.344;2024-03-17T13:28:14;16.50;84.70
12901;DHT22;6518;50.930;5.344;2024-03-17T13:30:41;16.60;83.90
12901;DHT22;6518;50.930;5.344;2024-03-17T13:33:10;16.60;83.00
12901;DHT22;6518;50.930;5.344;2024-03-17T13:35:38;16.60;83.20
12901;DHT22;6518;50.930;5.344;2024-03-17T13:38:06;16.60;83.00
12901;DHT22;6518;50.930;5.344;2024-03-17T13:40:35;16.60;82.70
12901;DHT22;6518;50.930;5.344;2024-03-17T13:43:03;16.60;82.40
12901;DHT22;6518;50.930;5.344;2024-03-17T13:45:38;16.70;82.50
12901;DHT22;6518;50.930;5.344;2024-03-17T13:48:06;16.70;82.60
12901;DHT22;6518;50.930;5.344;2024-03-17T13:50:36;16.80;82.70
12901;DHT22;6518;50.930;5.344;2024-03-17T13:53:05;17.00;82.40
12901;DHT22;6518;50.930;5.344;2024-03-17T13:55:32;17.10;82.20
12901;DHT22;6518;50.930;5.344;2024-03-17T13:58:00;17.10;81.60
12901;DHT22;6518;50.930;5.344;2024-03-17T14:00:28;17.10;81.10
12901;DHT22;6518;50.930;5.344;2024-03-17T14:02:57;17.10;81.00
12901;DHT22;6518;50.930;5.344;2024-03-17T14:05:25;17.10;81.50
12901;DHT22;6518;50.930;5.344;2024-03-17T14:07:53;17.00;80.40
12901;DHT22;6518;50.930;5.344;2024-03-17T14:10:22;16.80;79.40
12901;DHT22;6518;50.930;5.344;2024-03-17T14:12:49;16.70;79.90
12901;DHT22;6518;50.930;5.344;2024-03-17T14:15:18;16.60;80.00
12901;DHT22;6518;50.930;5.344;2024-03-17T14:17:46;16.60;80.30
12901;DHT22;6518;50.930;5.344;2024-03-17T14:20:15;16.60;80.30
12901;DHT22;6518;50.930;5.344;2024-03-17T14:22:44;16.50;80.10
12901;DHT22;6518;50.930;5.344;2024-03-17T14:25:16;16.50;80.40
12901;DHT22;6518;50.930;5.344;2024-03-17T14:27:43;16.50;80.10
12901;DHT22;6518;50.930;5.344;2024-03-17T14:30:14;16.50;80.50
12901;DHT22;6518;50.930;5.344;2024-03-17T14:32:45;16.50;80.30
12901;DHT22;6518;50.930;5.344;2024-03-17T14:35:13;16.50;80.80
12901;DHT22;6518;50.930;5.344;2024-03-17T14:37:41;16.40;80.60
12901;DHT22;6518;50.930;5.344;2024-03-17T14:40:13;16.40;80.80
12901;DHT22;6518;50.930;5.344;2024-03-17T14:42:46;16.40;80.90
12901;DHT22;6518;50.930;5.344;2024-03-17T14:45:13;16.40;81.00
12901;DHT22;6518;50.930;5.344;2024-03-17T14:47:40;16.30;80.80
12901;DHT22;6518;50.930;5.344;2024-03-17T14:50:09;16.30;81.10
12901;DHT22;6518;50.930;5.344;2024-03-17T14:52:37;16.20;81.10
12901;DHT22;6518;50.930;5.344;2024-03-17T14:55:04;16.10;81.30
12901;DHT22;6518;50.930;5.344;2024-03-17T14:57:32;16.10;81.70
12901;DHT22;6518;50.930;5.344;2024-03-17T14:59:59;16.10;82.00
12901;DHT22;6518;50.930;5.344;2024-03-17T15:02:28;16.00;82.00
12901;DHT22;6518;50.930;5.344;2024-03-17T15:04:55;16.00;82.30
12901;DHT22;6518;50.930;5.344;2024-03-17T15:07:23;16.00;82.60
12901;DHT22;6518;50.930;5.344;2024-03-17T15:09:51;15.90;82.80
12901;DHT22;6518;50.930;5.344;2024-03-17T15:12:18;15.90;83.00
12901;DHT22;6518;50.930;5.344;2024-03-17T15:14:46;15.90;83.10
12901;DHT22;6518;50.930;5.344;2024-03-17T15:17:13;15.90;82.80
12901;DHT22;6518;50.930;5.344;2024-03-17T15:19:41;15.90;82.80
12901;DHT22;6518;50.930;5.344;2024-03-17T15:22:09;15.80;82.50
12901;DHT22;6518;50.930;5.344;2024-03-17T15:24:37;15.80;82.90
12901;DHT22;6518;50.930;5.344;2024-03-17T15:27:04;15.80;83.00
12901;DHT22;6518;50.930;5.344;2024-03-17T15:29:31;15.70;83.10
12901;DHT22;6518;50.930;5.344;2024-03-17T15:31:58;15.70;83.20
12901;DHT22;6518;50.930;5.344;2024-03-17T15:34:24;15.70;84.30
12901;DHT22;6518;50.930;5.344;2024-03-17T15:36:53;15.70;83.50
12901;DHT22;6518;50.930;5.344;2024-03-17T15:39:20;15.60;83.70
12901;DHT22;6518;50.930;5.344;2024-03-17T15:41:48;15.60;84.50
12901;DHT22;6518;50.930;5.344;2024-03-17T15:44:15;15.60;83.70
12901;DHT22;6518;50.930;5.344;2024-03-17T15:46:42;15.60;83.80
12901;DHT22;6518;50.930;5.344;2024-03-17T15:49:09;15.50;84.00
12901;DHT22;6518;50.930;5.344;2024-03-17T15:51:36;15.50;84.20
12901;DHT22;6518;50.930;5.344;2024-03-17T15:54:03;15.50;84.60
12901;DHT22;6518;50.930;5.344;2024-03-17T15:56:30;15.40;84.80
12901;DHT22;6518;50.930;5.344;2024-03-17T15:58:59;15.40;85.80